createdAt,value
2023-05-09T00:00:00.180Z,77
2023-05-09T00:05:00.141Z,79
2023-05-09T00:10:00.127Z,78
2023-05-09T00:15:00.131Z,75
2023-05-09T00:20:00.175Z,74
2023-05-09T00:25:00.147Z,75
2023-05-09T00:30:00.150Z,76
2023-05-09T00:35:00.109Z,77
2023-05-09T00:40:00.121Z,78
2023-05-09T00:45:00.130Z,78
2023-05-09T00:50:00.162Z,79
2023-05-09T00:55:00.144Z,79
2023-05-09T01:00:00.099Z,79
2023-05-09T01:05:00.130Z,79
2023-05-09T01:10:00.109Z,77
2023-05-09T01:15:00.118Z,78
2023-05-09T01:20:00.168Z,78
2023-05-09T01:25:00.128Z,76
2023-05-09T01:30:00.159Z,75
2023-05-09T01:35:00.136Z,75
2023-05-09T01:40:00.199Z,75
2023-05-09T01:45:00.099Z,75
2023-05-09T01:50:00.159Z,75
2023-05-09T01:55:00.118Z,74
2023-05-09T02:00:00.135Z,76
2023-05-09T02:05:00.177Z,77
2023-05-09T02:10:00.108Z,78
2023-05-09T02:15:00.114Z,78
2023-05-09T02:20:00.215Z,77
2023-05-09T02:25:00.103Z,76
2023-05-09T02:30:00.100Z,76
2023-05-09T02:35:00.099Z,78
2023-05-09T02:40:00.133Z,80
2023-05-09T02:45:00.116Z,82
2023-05-09T02:50:00.171Z,82
2023-05-09T02:55:00.136Z,83
2023-05-09T03:00:00.151Z,83
2023-05-09T03:05:00.099Z,83
2023-05-09T03:10:00.154Z,83
2023-05-09T03:15:00.126Z,84
2023-05-09T03:20:03.166Z,84
2023-05-09T03:25:00.104Z,84
2023-05-09T03:30:00.139Z,85
2023-05-09T03:35:00.112Z,84
2023-05-09T03:40:00.147Z,85
2023-05-09T03:45:00.131Z,85
2023-05-09T03:50:00.143Z,85
2023-05-09T03:55:00.150Z,85
2023-05-09T04:00:00.174Z,84
2023-05-09T04:05:00.132Z,84
2023-05-09T04:10:00.141Z,84
2023-05-09T04:15:00.136Z,83
2023-05-09T04:20:00.187Z,83
2023-05-09T04:25:00.105Z,83
2023-05-09T04:30:00.150Z,81
2023-05-09T04:35:00.169Z,79
2023-05-09T04:40:00.122Z,79
2023-05-09T04:45:00.149Z,79
2023-05-09T04:50:00.193Z,79
2023-05-09T04:55:00.137Z,78
2023-05-09T05:00:00.120Z,77
2023-05-09T05:05:10.971Z,76
2023-05-09T05:10:00.126Z,74
2023-05-09T05:15:00.115Z,72
2023-05-09T05:20:00.174Z,72
2023-05-09T05:25:00.156Z,72
2023-05-09T05:30:00.125Z,72
2023-05-09T05:35:00.114Z,72
2023-05-09T05:40:00.120Z,72
2023-05-09T05:45:00.116Z,71
2023-05-09T05:50:00.190Z,71
2023-05-09T05:55:00.138Z,70
2023-05-09T06:00:00.154Z,70
2023-05-09T06:05:00.129Z,69
2023-05-09T06:10:00.182Z,68
2023-05-09T06:15:00.111Z,66
2023-05-09T06:20:00.156Z,64
2023-05-09T06:25:00.138Z,64
2023-05-09T06:30:01.419Z,63
2023-05-09T06:35:00.144Z,62
2023-05-09T06:40:00.137Z,61
2023-05-09T06:45:00.153Z,60
2023-05-09T06:50:00.138Z,59
2023-05-09T06:55:00.098Z,57
2023-05-09T07:00:00.174Z,57
2023-05-09T07:05:00.191Z,57
2023-05-09T07:10:10.393Z,57
2023-05-09T07:15:00.154Z,57
2023-05-09T07:20:00.150Z,57
2023-05-09T07:25:00.131Z,58
2023-05-09T07:30:00.155Z,58
2023-05-09T07:35:00.134Z,57
2023-05-09T07:40:00.139Z,57
2023-05-09T07:45:00.098Z,56
2023-05-09T07:50:00.149Z,54
2023-05-09T07:55:00.158Z,55
2023-05-09T08:00:00.129Z,55
2023-05-09T08:05:00.104Z,54
2023-05-09T08:10:00.121Z,51
2023-05-09T08:15:00.112Z,52
2023-05-09T08:20:00.149Z,52
2023-05-09T08:25:00.131Z,53
2023-05-09T08:30:00.118Z,54
2023-05-09T08:35:00.127Z,53
2023-05-09T08:40:00.134Z,53
2023-05-09T08:45:00.138Z,54
2023-05-09T08:50:00.099Z,53
2023-05-09T08:55:00.134Z,53
2023-05-09T09:00:00.147Z,51
2023-05-09T09:05:00.129Z,50
2023-05-09T09:10:00.169Z,51
2023-05-09T09:15:00.137Z,50
2023-05-09T09:20:00.220Z,49
2023-05-09T09:25:00.117Z,48
2023-05-09T09:30:00.158Z,47
2023-05-09T09:35:00.156Z,46
2023-05-09T09:40:00.150Z,44
2023-05-09T09:45:00.106Z,45
2023-05-09T09:50:00.169Z,44
2023-05-09T09:55:00.116Z,43
2023-05-09T10:00:00.126Z,43
2023-05-09T10:05:00.167Z,43
2023-05-09T10:10:00.172Z,43
2023-05-09T10:15:00.135Z,45
2023-05-09T10:20:00.148Z,44
2023-05-09T10:25:00.179Z,42
2023-05-09T10:30:00.119Z,43
2023-05-09T10:35:00.113Z,38
2023-05-09T10:40:00.145Z,40
2023-05-09T10:45:00.154Z,40
2023-05-09T10:50:00.136Z,38
2023-05-09T10:55:00.116Z,39
2023-05-09T11:00:00.103Z,38
2023-05-09T11:05:00.135Z,38
2023-05-09T11:10:00.131Z,38
2023-05-09T11:15:00.103Z,38
2023-05-09T11:20:00.185Z,39
2023-05-09T11:25:00.115Z,38
2023-05-09T11:30:00.108Z,38
2023-05-09T11:35:00.115Z,40
2023-05-09T11:40:00.139Z,39
2023-05-09T11:45:00.141Z,38
2023-05-09T11:50:00.105Z,37
2023-05-09T11:55:00.155Z,37
2023-05-09T12:00:00.105Z,36
2023-05-09T12:05:00.113Z,37
2023-05-09T12:10:00.221Z,37
2023-05-09T12:15:00.120Z,37
2023-05-09T12:20:00.114Z,37
2023-05-09T12:25:00.139Z,37
2023-05-09T12:30:00.132Z,37
2023-05-09T12:35:00.109Z,37
2023-05-09T12:40:00.131Z,37
2023-05-09T12:45:00.104Z,38
2023-05-09T12:50:00.117Z,38
2023-05-09T12:55:00.114Z,38
2023-05-09T13:00:00.262Z,38
2023-05-09T13:05:00.131Z,38
2023-05-09T13:10:00.189Z,37
2023-05-09T13:15:00.143Z,36
2023-05-09T13:20:00.153Z,35
2023-05-09T13:25:00.144Z,37
2023-05-09T13:30:00.122Z,36
2023-05-09T13:35:00.140Z,36
2023-05-09T13:40:00.144Z,36
2023-05-09T13:45:00.128Z,36
2023-05-09T13:50:00.125Z,37
2023-05-09T13:55:00.126Z,37
2023-05-09T14:00:00.135Z,36
2023-05-09T14:05:00.127Z,37
2023-05-09T14:10:16.146Z,35
2023-05-09T14:15:00.120Z,35
2023-05-09T14:20:00.139Z,34
2023-05-09T14:25:00.166Z,34
2023-05-09T14:30:00.144Z,34
2023-05-09T14:35:00.199Z,35
2023-05-09T14:40:00.144Z,36
2023-05-09T14:45:00.106Z,37
2023-05-09T14:50:00.148Z,36
2023-05-09T14:55:00.113Z,35
2023-05-09T15:00:12.726Z,36
2023-05-09T15:05:00.145Z,35
2023-05-09T15:10:00.137Z,35
2023-05-09T15:15:00.175Z,35
2023-05-09T15:20:00.160Z,35
2023-05-09T15:25:00.153Z,36
2023-05-09T15:30:00.145Z,36
2023-05-09T15:35:00.115Z,36
2023-05-09T15:40:00.134Z,35
2023-05-09T15:45:00.146Z,37
2023-05-09T15:50:00.173Z,37
2023-05-09T15:55:00.223Z,39
2023-05-09T16:00:00.108Z,36
2023-05-09T16:05:00.136Z,37
2023-05-09T16:10:00.221Z,38
2023-05-09T16:15:00.154Z,38
2023-05-09T16:20:00.110Z,37
2023-05-09T16:25:00.179Z,38
2023-05-09T16:30:00.173Z,37
2023-05-09T16:35:00.125Z,36
2023-05-09T16:40:00.211Z,36
2023-05-09T16:45:00.119Z,36
2023-05-09T16:50:00.224Z,35
2023-05-09T16:55:00.123Z,36
2023-05-09T17:00:00.171Z,36
2023-05-09T17:05:00.159Z,37
2023-05-09T17:10:00.200Z,37
2023-05-09T17:15:00.126Z,38
2023-05-09T17:20:00.166Z,38
2023-05-09T17:25:00.133Z,38
2023-05-09T17:30:00.174Z,39
2023-05-09T17:35:00.138Z,39
2023-05-09T17:40:00.141Z,40
2023-05-09T17:45:00.151Z,40
2023-05-09T17:50:00.179Z,40
2023-05-09T17:55:00.126Z,40
2023-05-09T18:00:00.106Z,41
2023-05-09T18:05:00.135Z,42
2023-05-09T18:10:00.125Z,42
2023-05-09T18:15:00.165Z,42
2023-05-09T18:20:00.124Z,42
2023-05-09T18:25:00.117Z,43
2023-05-09T18:30:00.121Z,44
2023-05-09T18:35:00.122Z,45
2023-05-09T18:40:00.212Z,45
2023-05-09T18:45:00.133Z,46
2023-05-09T18:50:02.456Z,46
2023-05-09T18:55:00.111Z,46
2023-05-09T19:00:00.168Z,46
2023-05-09T19:05:00.139Z,46
2023-05-09T19:10:00.101Z,46
2023-05-09T19:15:00.125Z,46
2023-05-09T19:20:00.135Z,46
2023-05-09T19:25:00.162Z,47
2023-05-09T19:30:00.129Z,47
2023-05-09T19:35:00.126Z,47
2023-05-09T19:40:00.198Z,47
2023-05-09T19:45:00.138Z,48
2023-05-09T19:50:00.149Z,48
2023-05-09T19:55:00.165Z,49
2023-05-09T20:00:00.130Z,49
2023-05-09T20:05:00.165Z,51
2023-05-09T20:10:00.147Z,51
2023-05-09T20:15:00.109Z,52
2023-05-09T20:20:00.162Z,53
2023-05-09T20:25:00.099Z,54
2023-05-09T20:30:00.177Z,60
2023-05-09T20:35:00.232Z,65
2023-05-09T20:40:00.120Z,69
2023-05-09T20:45:00.116Z,71
2023-05-09T20:50:00.163Z,74
2023-05-09T20:55:00.150Z,75
2023-05-09T21:00:00.135Z,77
2023-05-09T21:05:00.114Z,79
2023-05-09T21:10:00.157Z,81
2023-05-09T21:15:00.140Z,81
2023-05-09T21:20:00.151Z,82
2023-05-09T21:25:00.152Z,83
2023-05-09T21:30:00.206Z,83
2023-05-09T21:35:00.113Z,83
2023-05-09T21:40:00.134Z,83
2023-05-09T21:45:00.139Z,83
2023-05-09T21:50:00.123Z,84
2023-05-09T21:55:00.104Z,84
2023-05-09T22:00:00.119Z,84
2023-05-09T22:05:00.161Z,85
2023-05-09T22:10:00.159Z,85
2023-05-09T22:15:00.120Z,85
2023-05-09T22:20:00.119Z,86
2023-05-09T22:25:00.219Z,86
2023-05-09T22:30:00.145Z,86
2023-05-09T22:35:00.124Z,86
2023-05-09T22:40:00.158Z,86
2023-05-09T22:45:00.151Z,87
2023-05-09T22:50:00.153Z,87
2023-05-09T22:55:00.134Z,88
2023-05-09T23:00:00.136Z,89
2023-05-09T23:05:00.144Z,89
2023-05-09T23:10:00.158Z,89
2023-05-09T23:15:00.137Z,89
2023-05-09T23:20:00.128Z,89
2023-05-09T23:25:00.131Z,90
2023-05-09T23:30:00.157Z,90
2023-05-09T23:35:00.138Z,90
2023-05-09T23:40:00.173Z,91
2023-05-09T23:45:00.120Z,91
2023-05-09T23:50:00.163Z,91
2023-05-09T23:55:00.190Z,91
